Weather at Austin Robert Mueller Municipal [CLOSED]

Public forecast

Using degrees Fahrenheit for public forecast. Weather courtesy of forecast.io.

Closest aviation weather report (METAR) to Austin Robert Mueller Municipal

Closest report is Austin Bergstrom International Airport, 6.4 nm (11.9 km) SSE. Retrieved 2020/10/25 23:53 UTC (34 minutes ago):

KAUS 252353Z 15009KT 10SM OVC045 28/19 A2982 RMK AO2 SLP091 T02780194 10294 20233 53003

Closest aviation forecast (TAF) to Austin Robert Mueller Municipal

Closest forecast is Austin Bergstrom International Airport, 6.4 nm (11.9 km) SSE. Retrieved 2020-10-26 00:22 UTC (5 minutes ago):

TAF KAUS 252320Z 2600/2706 18013KT P6SM SCT025 BKN035 FM260400 15009KT P6SM OVC012 PROB30 2610/2615 6SM -DZ OVC008 FM262200 35012KT P6SM BKN017 PROB30 2622/2704 4SM -SHRA